Main page
METAR-TAF:

Airports :

Longyearbyen, Longyear,

Svalbard Airport

latitude: Norway, longitude: 78-15N, elevation: 015-28E m

Current weather observation

The report was made 1 hour and 1 minutes ago, at 07:50 UTC
Wind 13 kt from the East/Southeast
Temperature -11°C
Humidity 61%
Pressure 1004 hPa
Visibility 10 km or more
no clouds below 1500 m and no cumulonimbus

METAR: ENSB 060750Z 12013KT CAVOK M11/M17 Q1004 RMK WIND 1400FT 12014KT

Time: 08:51 (08:51 UTC)

Forecast

Forecast valid from 06 at 06 UTC to 07 at 06 UTC
Wind 8 kt from the East/Southeast
Visibility 10 km or more
Few clouds at a height of 1500 ft
Scattered clouds at a height of 3000 ft
Temporary
from 06 at 18 UTC to 07 at 06 UTC
Wind 20 kt from the East/Southeast

TAF: ENSB 0606/0706 12008KT 9999 FEW015 SCT030 TEMPO 0618/0706 12020KT

METAR-TAF

Weather observations and forecasts of more than 4000 airports (METAR and TAF reports).

The available stations are represented by yellow and red dots on the map.

Hover mouse over dot to see the name of the station.

Then click to see weather observations and forecasts.

To change the map : click on the green buttons with a black cross to zoom in, on the green button with a dash to zoom out, or on the green arrows for adjacent maps.


METAR-TAF: